sensor_id;sensor_type;location;lat;lon;timestamp;P1;durP1;ratioP1;P2;durP2;ratioP2
8060;SDS011;4073;42.626;25.386;2023-09-19T00:00:42;7.63;;;6.53;;
8060;SDS011;4073;42.626;25.386;2023-09-19T00:03:09;7.43;;;6.73;;
8060;SDS011;4073;42.626;25.386;2023-09-19T00:05:35;9.27;;;6.43;;
8060;SDS011;4073;42.626;25.386;2023-09-19T00:08:01;8.93;;;6.97;;
8060;SDS011;4073;42.626;25.386;2023-09-19T00:10:30;7.27;;;6.60;;
8060;SDS011;4073;42.626;25.386;2023-09-19T00:12:57;6.37;;;5.63;;
8060;SDS011;4073;42.626;25.386;2023-09-19T00:15:27;7.07;;;5.90;;
8060;SDS011;4073;42.626;25.386;2023-09-19T00:17:55;7.13;;;5.83;;
8060;SDS011;4073;42.626;25.386;2023-09-19T00:20:22;7.07;;;5.87;;
8060;SDS011;4073;42.626;25.386;2023-09-19T00:22:51;7.13;;;6.17;;
8060;SDS011;4073;42.626;25.386;2023-09-19T00:25:18;6.90;;;6.00;;
8060;SDS011;4073;42.626;25.386;2023-09-19T00:27:45;7.80;;;6.67;;
8060;SDS011;4073;42.626;25.386;2023-09-19T00:30:13;6.70;;;5.83;;
8060;SDS011;4073;42.626;25.386;2023-09-19T00:32:44;6.37;;;5.77;;
8060;SDS011;4073;42.626;25.386;2023-09-19T00:35:12;6.83;;;6.03;;
8060;SDS011;4073;42.626;25.386;2023-09-19T00:37:39;6.87;;;5.53;;
8060;SDS011;4073;42.626;25.386;2023-09-19T00:40:05;7.77;;;5.33;;
8060;SDS011;4073;42.626;25.386;2023-09-19T00:42:34;6.17;;;5.57;;
8060;SDS011;4073;42.626;25.386;2023-09-19T00:45:03;7.20;;;4.97;;
8060;SDS011;4073;42.626;25.386;2023-09-19T00:47:30;7.00;;;5.50;;
8060;SDS011;4073;42.626;25.386;2023-09-19T00:49:55;5.60;;;5.10;;
8060;SDS011;4073;42.626;25.386;2023-09-19T00:52:22;7.13;;;6.10;;
8060;SDS011;4073;42.626;25.386;2023-09-19T00:54:48;9.13;;;6.27;;
8060;SDS011;4073;42.626;25.386;2023-09-19T00:57:14;9.63;;;5.90;;
8060;SDS011;4073;42.626;25.386;2023-09-19T00:59:40;6.67;;;6.03;;
8060;SDS011;4073;42.626;25.386;2023-09-19T01:02:07;8.63;;;6.30;;
8060;SDS011;4073;42.626;25.386;2023-09-19T01:04:33;9.10;;;5.23;;
8060;SDS011;4073;42.626;25.386;2023-09-19T01:06:59;6.27;;;5.67;;
8060;SDS011;4073;42.626;25.386;2023-09-19T01:09:25;7.53;;;6.17;;
8060;SDS011;4073;42.626;25.386;2023-09-19T01:11:52;7.07;;;5.90;;
8060;SDS011;4073;42.626;25.386;2023-09-19T01:14:29;7.70;;;5.93;;
8060;SDS011;4073;42.626;25.386;2023-09-19T01:17:04;6.33;;;5.20;;
8060;SDS011;4073;42.626;25.386;2023-09-19T01:22:08;6.77;;;6.07;;
8060;SDS011;4073;42.626;25.386;2023-09-19T01:30:52;9.77;;;5.70;;
8060;SDS011;4073;42.626;25.386;2023-09-19T01:33:23;6.70;;;5.73;;
8060;SDS011;4073;42.626;25.386;2023-09-19T01:35:49;6.50;;;5.67;;
8060;SDS011;4073;42.626;25.386;2023-09-19T01:38:15;6.23;;;5.73;;
8060;SDS011;4073;42.626;25.386;2023-09-19T01:40:46;6.40;;;5.80;;
8060;SDS011;4073;42.626;25.386;2023-09-19T01:43:42;7.10;;;5.90;;
8060;SDS011;4073;42.626;25.386;2023-09-19T01:46:29;6.77;;;6.07;;
8060;SDS011;4073;42.626;25.386;2023-09-19T01:51:40;7.03;;;6.00;;
8060;SDS011;4073;42.626;25.386;2023-09-19T01:54:12;6.47;;;5.73;;
8060;SDS011;4073;42.626;25.386;2023-09-19T01:56:51;8.67;;;6.13;;
8060;SDS011;4073;42.626;25.386;2023-09-19T01:59:36;5.50;;;4.67;;
8060;SDS011;4073;42.626;25.386;2023-09-19T02:02:09;6.00;;;5.00;;
8060;SDS011;4073;42.626;25.386;2023-09-19T02:04:36;5.73;;;4.87;;
8060;SDS011;4073;42.626;25.386;2023-09-19T02:07:02;7.13;;;5.13;;
8060;SDS011;4073;42.626;25.386;2023-09-19T02:09:30;6.10;;;5.50;;
8060;SDS011;4073;42.626;25.386;2023-09-19T02:11:56;6.20;;;5.60;;
8060;SDS011;4073;42.626;25.386;2023-09-19T02:14:21;6.40;;;5.77;;
8060;SDS011;4073;42.626;25.386;2023-09-19T02:16:47;6.13;;;5.53;;
8060;SDS011;4073;42.626;25.386;2023-09-19T02:19:15;6.90;;;5.87;;
8060;SDS011;4073;42.626;25.386;2023-09-19T02:21:41;7.63;;;6.80;;
8060;SDS011;4073;42.626;25.386;2023-09-19T02:24:06;7.47;;;5.73;;
8060;SDS011;4073;42.626;25.386;2023-09-19T02:26:33;7.90;;;6.00;;
8060;SDS011;4073;42.626;25.386;2023-09-19T02:29:01;6.93;;;6.23;;
8060;SDS011;4073;42.626;25.386;2023-09-19T02:31:30;6.47;;;5.73;;
8060;SDS011;4073;42.626;25.386;2023-09-19T02:33:56;7.27;;;5.63;;
8060;SDS011;4073;42.626;25.386;2023-09-19T02:36:21;5.87;;;5.20;;
8060;SDS011;4073;42.626;25.386;2023-09-19T02:38:48;6.37;;;5.73;;
8060;SDS011;4073;42.626;25.386;2023-09-19T02:41:14;7.87;;;5.77;;
8060;SDS011;4073;42.626;25.386;2023-09-19T02:43:39;7.83;;;5.80;;
8060;SDS011;4073;42.626;25.386;2023-09-19T02:46:05;10.13;;;6.27;;
8060;SDS011;4073;42.626;25.386;2023-09-19T02:48:30;5.93;;;5.33;;
8060;SDS011;4073;42.626;25.386;2023-09-19T02:50:57;6.53;;;5.37;;
8060;SDS011;4073;42.626;25.386;2023-09-19T02:53:22;6.97;;;5.90;;
8060;SDS011;4073;42.626;25.386;2023-09-19T02:55:49;7.80;;;6.23;;
8060;SDS011;4073;42.626;25.386;2023-09-19T02:58:15;7.87;;;6.20;;
8060;SDS011;4073;42.626;25.386;2023-09-19T03:00:40;7.67;;;5.53;;
8060;SDS011;4073;42.626;25.386;2023-09-19T03:03:12;7.83;;;6.07;;
8060;SDS011;4073;42.626;25.386;2023-09-19T03:05:38;7.40;;;5.73;;
8060;SDS011;4073;42.626;25.386;2023-09-19T03:08:03;8.17;;;6.87;;
8060;SDS011;4073;42.626;25.386;2023-09-19T03:10:30;8.77;;;6.63;;
8060;SDS011;4073;42.626;25.386;2023-09-19T03:12:56;10.73;;;7.30;;
8060;SDS011;4073;42.626;25.386;2023-09-19T03:15:22;10.03;;;7.07;;
8060;SDS011;4073;42.626;25.386;2023-09-19T03:17:48;11.43;;;7.53;;
8060;SDS011;4073;42.626;25.386;2023-09-19T03:20:14;9.63;;;6.80;;
8060;SDS011;4073;42.626;25.386;2023-09-19T03:22:44;7.00;;;6.30;;
8060;SDS011;4073;42.626;25.386;2023-09-19T03:25:11;7.97;;;6.60;;
8060;SDS011;4073;42.626;25.386;2023-09-19T03:27:39;7.73;;;6.60;;
8060;SDS011;4073;42.626;25.386;2023-09-19T03:30:06;9.43;;;6.60;;
8060;SDS011;4073;42.626;25.386;2023-09-19T03:32:34;6.50;;;5.80;;
8060;SDS011;4073;42.626;25.386;2023-09-19T03:35:01;9.70;;;5.87;;
8060;SDS011;4073;42.626;25.386;2023-09-19T03:37:27;6.87;;;6.10;;
8060;SDS011;4073;42.626;25.386;2023-09-19T03:39:53;7.33;;;6.47;;
8060;SDS011;4073;42.626;25.386;2023-09-19T03:42:18;6.63;;;5.93;;
8060;SDS011;4073;42.626;25.386;2023-09-19T03:44:50;10.57;;;6.47;;
8060;SDS011;4073;42.626;25.386;2023-09-19T03:47:17;11.57;;;7.47;;
8060;SDS011;4073;42.626;25.386;2023-09-19T03:49:44;8.90;;;7.33;;
8060;SDS011;4073;42.626;25.386;2023-09-19T03:52:09;9.90;;;7.63;;
8060;SDS011;4073;42.626;25.386;2023-09-19T03:54:35;8.80;;;7.20;;
8060;SDS011;4073;42.626;25.386;2023-09-19T03:57:00;6.83;;;6.03;;
8060;SDS011;4073;42.626;25.386;2023-09-19T03:59:26;7.53;;;5.93;;
8060;SDS011;4073;42.626;25.386;2023-09-19T04:01:53;5.97;;;5.47;;
8060;SDS011;4073;42.626;25.386;2023-09-19T04:04:21;9.60;;;6.43;;
8060;SDS011;4073;42.626;25.386;2023-09-19T04:06:49;8.17;;;5.60;;
8060;SDS011;4073;42.626;25.386;2023-09-19T04:09:15;7.37;;;5.87;;
8060;SDS011;4073;42.626;25.386;2023-09-19T04:11:41;6.90;;;6.00;;
8060;SDS011;4073;42.626;25.386;2023-09-19T04:14:06;7.87;;;5.73;;
8060;SDS011;4073;42.626;25.386;2023-09-19T04:16:32;8.10;;;6.00;;
8060;SDS011;4073;42.626;25.386;2023-09-19T04:18:57;6.73;;;6.03;;
8060;SDS011;4073;42.626;25.386;2023-09-19T04:21:23;9.67;;;6.53;;
8060;SDS011;4073;42.626;25.386;2023-09-19T04:23:48;8.07;;;6.23;;
8060;SDS011;4073;42.626;25.386;2023-09-19T04:26:14;9.83;;;6.03;;
8060;SDS011;4073;42.626;25.386;2023-09-19T04:28:41;8.43;;;5.53;;
8060;SDS011;4073;42.626;25.386;2023-09-19T04:31:06;7.13;;;5.13;;
8060;SDS011;4073;42.626;25.386;2023-09-19T04:33:33;8.53;;;6.07;;
8060;SDS011;4073;42.626;25.386;2023-09-19T04:36:00;7.60;;;6.80;;
8060;SDS011;4073;42.626;25.386;2023-09-19T04:38:25;8.73;;;6.00;;
8060;SDS011;4073;42.626;25.386;2023-09-19T04:40:56;8.80;;;5.87;;
8060;SDS011;4073;42.626;25.386;2023-09-19T04:43:22;8.67;;;6.40;;
8060;SDS011;4073;42.626;25.386;2023-09-19T04:45:49;9.90;;;6.17;;
8060;SDS011;4073;42.626;25.386;2023-09-19T04:48:15;9.03;;;6.27;;
8060;SDS011;4073;42.626;25.386;2023-09-19T04:50:41;6.43;;;5.83;;
8060;SDS011;4073;42.626;25.386;2023-09-19T04:53:06;8.37;;;6.33;;
8060;SDS011;4073;42.626;25.386;2023-09-19T04:55:32;9.10;;;5.70;;
8060;SDS011;4073;42.626;25.386;2023-09-19T04:57:58;13.43;;;7.50;;
8060;SDS011;4073;42.626;25.386;2023-09-19T05:00:23;10.10;;;7.73;;
8060;SDS011;4073;42.626;25.386;2023-09-19T05:02:50;8.23;;;7.03;;
8060;SDS011;4073;42.626;25.386;2023-09-19T05:05:16;7.57;;;6.50;;
8060;SDS011;4073;42.626;25.386;2023-09-19T05:07:43;7.10;;;6.40;;
8060;SDS011;4073;42.626;25.386;2023-09-19T05:10:12;6.83;;;5.53;;
8060;SDS011;4073;42.626;25.386;2023-09-19T05:12:38;8.87;;;5.87;;
8060;SDS011;4073;42.626;25.386;2023-09-19T05:15:07;7.30;;;6.27;;
8060;SDS011;4073;42.626;25.386;2023-09-19T05:17:33;6.90;;;5.03;;
8060;SDS011;4073;42.626;25.386;2023-09-19T05:20:00;7.07;;;5.50;;
8060;SDS011;4073;42.626;25.386;2023-09-19T05:22:31;8.30;;;6.37;;
8060;SDS011;4073;42.626;25.386;2023-09-19T05:24:57;7.27;;;5.87;;
8060;SDS011;4073;42.626;25.386;2023-09-19T05:27:23;8.07;;;6.40;;
8060;SDS011;4073;42.626;25.386;2023-09-19T05:29:49;7.60;;;6.37;;
8060;SDS011;4073;42.626;25.386;2023-09-19T05:32:15;12.47;;;6.00;;
8060;SDS011;4073;42.626;25.386;2023-09-19T05:34:43;7.03;;;6.33;;
8060;SDS011;4073;42.626;25.386;2023-09-19T05:37:08;6.30;;;5.70;;
8060;SDS011;4073;42.626;25.386;2023-09-19T05:39:33;6.67;;;5.80;;
8060;SDS011;4073;42.626;25.386;2023-09-19T05:41:59;7.40;;;6.03;;
8060;SDS011;4073;42.626;25.386;2023-09-19T05:44:28;5.70;;;5.20;;
8060;SDS011;4073;42.626;25.386;2023-09-19T05:46:54;6.90;;;6.23;;
8060;SDS011;4073;42.626;25.386;2023-09-19T05:49:21;6.07;;;5.47;;
8060;SDS011;4073;42.626;25.386;2023-09-19T05:51:47;6.33;;;5.73;;
8060;SDS011;4073;42.626;25.386;2023-09-19T05:54:12;8.47;;;5.40;;
8060;SDS011;4073;42.626;25.386;2023-09-19T05:56:38;8.53;;;5.97;;
8060;SDS011;4073;42.626;25.386;2023-09-19T05:59:03;6.97;;;5.43;;
8060;SDS011;4073;42.626;25.386;2023-09-19T06:01:30;7.93;;;6.87;;
8060;SDS011;4073;42.626;25.386;2023-09-19T06:03:57;6.07;;;5.47;;
8060;SDS011;4073;42.626;25.386;2023-09-19T06:06:25;7.07;;;6.20;;
8060;SDS011;4073;42.626;25.386;2023-09-19T06:08:51;8.07;;;5.50;;
8060;SDS011;4073;42.626;25.386;2023-09-19T06:11:16;10.17;;;6.70;;
8060;SDS011;4073;42.626;25.386;2023-09-19T06:13:42;7.57;;;6.73;;
8060;SDS011;4073;42.626;25.386;2023-09-19T06:16:07;8.47;;;5.63;;
8060;SDS011;4073;42.626;25.386;2023-09-19T06:18:34;7.33;;;5.67;;
8060;SDS011;4073;42.626;25.386;2023-09-19T06:21:00;8.77;;;6.63;;
8060;SDS011;4073;42.626;25.386;2023-09-19T06:23:26;7.47;;;6.70;;
8060;SDS011;4073;42.626;25.386;2023-09-19T06:25:54;10.40;;;6.00;;
8060;SDS011;4073;42.626;25.386;2023-09-19T06:28:19;6.87;;;5.90;;
8060;SDS011;4073;42.626;25.386;2023-09-19T06:30:49;6.07;;;5.30;;
8060;SDS011;4073;42.626;25.386;2023-09-19T06:33:15;6.17;;;5.40;;
8060;SDS011;4073;42.626;25.386;2023-09-19T06:35:41;8.93;;;5.93;;
8060;SDS011;4073;42.626;25.386;2023-09-19T06:38:09;5.53;;;4.80;;
8060;SDS011;4073;42.626;25.386;2023-09-19T06:40:38;5.37;;;4.87;;
8060;SDS011;4073;42.626;25.386;2023-09-19T06:43:04;8.87;;;5.37;;
8060;SDS011;4073;42.626;25.386;2023-09-19T06:45:30;6.20;;;4.73;;
8060;SDS011;4073;42.626;25.386;2023-09-19T06:47:57;6.00;;;4.90;;
8060;SDS011;4073;42.626;25.386;2023-09-19T06:50:23;4.83;;;4.33;;
8060;SDS011;4073;42.626;25.386;2023-09-19T06:52:49;6.90;;;4.57;;
8060;SDS011;4073;42.626;25.386;2023-09-19T06:55:20;6.83;;;5.07;;
8060;SDS011;4073;42.626;25.386;2023-09-19T06:57:46;8.50;;;4.63;;
8060;SDS011;4073;42.626;25.386;2023-09-19T07:00:12;8.53;;;5.00;;
8060;SDS011;4073;42.626;25.386;2023-09-19T07:03:05;5.60;;;4.70;;
8060;SDS011;4073;42.626;25.386;2023-09-19T07:05:33;5.97;;;4.67;;
8060;SDS011;4073;42.626;25.386;2023-09-19T07:08:02;5.60;;;4.73;;
8060;SDS011;4073;42.626;25.386;2023-09-19T07:10:28;5.50;;;4.63;;
8060;SDS011;4073;42.626;25.386;2023-09-19T07:12:57;6.43;;;4.57;;
8060;SDS011;4073;42.626;25.386;2023-09-19T07:15:26;5.93;;;4.87;;
8060;SDS011;4073;42.626;25.386;2023-09-19T07:17:53;5.37;;;4.57;;
8060;SDS011;4073;42.626;25.386;2023-09-19T07:20:19;4.70;;;4.17;;
8060;SDS011;4073;42.626;25.386;2023-09-19T07:22:45;4.77;;;3.87;;
8060;SDS011;4073;42.626;25.386;2023-09-19T07:25:12;6.30;;;4.10;;
8060;SDS011;4073;42.626;25.386;2023-09-19T07:27:39;5.73;;;4.23;;
8060;SDS011;4073;42.626;25.386;2023-09-19T07:30:08;4.57;;;4.07;;
8060;SDS011;4073;42.626;25.386;2023-09-19T07:32:34;4.00;;;3.60;;
8060;SDS011;4073;42.626;25.386;2023-09-19T07:35:02;4.53;;;3.70;;
8060;SDS011;4073;42.626;25.386;2023-09-19T07:37:29;6.00;;;4.10;;
8060;SDS011;4073;42.626;25.386;2023-09-19T07:39:56;4.10;;;3.70;;
8060;SDS011;4073;42.626;25.386;2023-09-19T07:42:22;7.03;;;3.47;;
8060;SDS011;4073;42.626;25.386;2023-09-19T07:44:47;3.80;;;3.10;;
8060;SDS011;4073;42.626;25.386;2023-09-19T07:47:15;4.03;;;3.63;;
8060;SDS011;4073;42.626;25.386;2023-09-19T07:49:41;4.60;;;3.77;;
8060;SDS011;4073;42.626;25.386;2023-09-19T07:52:08;5.53;;;3.70;;
8060;SDS011;4073;42.626;25.386;2023-09-19T07:54:34;7.03;;;3.50;;
8060;SDS011;4073;42.626;25.386;2023-09-19T07:57:03;4.87;;;3.70;;
8060;SDS011;4073;42.626;25.386;2023-09-19T07:59:29;5.80;;;3.80;;
8060;SDS011;4073;42.626;25.386;2023-09-19T08:01:55;5.53;;;3.13;;
8060;SDS011;4073;42.626;25.386;2023-09-19T08:04:20;4.10;;;3.37;;
8060;SDS011;4073;42.626;25.386;2023-09-19T08:06:46;5.53;;;3.70;;
8060;SDS011;4073;42.626;25.386;2023-09-19T08:09:11;7.83;;;3.63;;
8060;SDS011;4073;42.626;25.386;2023-09-19T08:11:41;4.87;;;3.67;;
8060;SDS011;4073;42.626;25.386;2023-09-19T08:14:06;3.90;;;3.60;;
8060;SDS011;4073;42.626;25.386;2023-09-19T08:16:33;5.27;;;3.60;;
8060;SDS011;4073;42.626;25.386;2023-09-19T08:18:59;4.50;;;3.70;;
8060;SDS011;4073;42.626;25.386;2023-09-19T08:21:24;4.33;;;3.93;;
8060;SDS011;4073;42.626;25.386;2023-09-19T08:23:51;4.60;;;3.53;;
8060;SDS011;4073;42.626;25.386;2023-09-19T08:26:16;3.77;;;3.47;;
8060;SDS011;4073;42.626;25.386;2023-09-19T08:28:42;5.07;;;3.53;;
8060;SDS011;4073;42.626;25.386;2023-09-19T08:31:07;7.03;;;3.40;;
8060;SDS011;4073;42.626;25.386;2023-09-19T08:33:34;5.30;;;4.27;;
8060;SDS011;4073;42.626;25.386;2023-09-19T08:36:01;5.23;;;3.70;;
8060;SDS011;4073;42.626;25.386;2023-09-19T08:38:30;3.53;;;3.23;;
8060;SDS011;4073;42.626;25.386;2023-09-19T08:40:58;4.00;;;3.60;;
8060;SDS011;4073;42.626;25.386;2023-09-19T08:43:30;6.13;;;4.17;;
8060;SDS011;4073;42.626;25.386;2023-09-19T08:48:31;3.27;;;2.97;;
8060;SDS011;4073;42.626;25.386;2023-09-19T08:51:03;4.03;;;3.47;;
8060;SDS011;4073;42.626;25.386;2023-09-19T08:56:14;5.27;;;3.57;;
8060;SDS011;4073;42.626;25.386;2023-09-19T09:01:28;4.13;;;3.33;;
8060;SDS011;4073;42.626;25.386;2023-09-19T09:03:56;4.20;;;3.80;;
8060;SDS011;4073;42.626;25.386;2023-09-19T09:06:22;5.07;;;3.80;;
8060;SDS011;4073;42.626;25.386;2023-09-19T09:08:52;3.63;;;3.33;;
8060;SDS011;4073;42.626;25.386;2023-09-19T09:11:18;4.77;;;3.83;;
8060;SDS011;4073;42.626;25.386;2023-09-19T09:13:44;3.90;;;3.60;;
8060;SDS011;4073;42.626;25.386;2023-09-19T09:16:11;4.23;;;3.57;;
8060;SDS011;4073;42.626;25.386;2023-09-19T09:18:37;3.97;;;3.57;;
8060;SDS011;4073;42.626;25.386;2023-09-19T09:21:03;3.23;;;2.97;;
8060;SDS011;4073;42.626;25.386;2023-09-19T09:23:31;3.50;;;3.20;;
8060;SDS011;4073;42.626;25.386;2023-09-19T09:25:57;4.73;;;3.53;;
8060;SDS011;4073;42.626;25.386;2023-09-19T09:28:32;7.97;;;4.30;;
8060;SDS011;4073;42.626;25.386;2023-09-19T09:31:00;4.47;;;3.60;;
8060;SDS011;4073;42.626;25.386;2023-09-19T09:33:33;3.70;;;3.40;;
8060;SDS011;4073;42.626;25.386;2023-09-19T09:35:59;6.37;;;3.70;;
8060;SDS011;4073;42.626;25.386;2023-09-19T09:38:28;5.67;;;3.60;;
8060;SDS011;4073;42.626;25.386;2023-09-19T09:41:09;5.23;;;3.67;;
8060;SDS011;4073;42.626;25.386;2023-09-19T09:43:40;3.43;;;3.13;;
8060;SDS011;4073;42.626;25.386;2023-09-19T09:46:14;4.77;;;3.30;;
8060;SDS011;4073;42.626;25.386;2023-09-19T09:48:46;4.00;;;3.10;;
8060;SDS011;4073;42.626;25.386;2023-09-19T09:51:32;3.77;;;3.20;;
8060;SDS011;4073;42.626;25.386;2023-09-19T09:54:10;4.00;;;3.60;;
8060;SDS011;4073;42.626;25.386;2023-09-19T09:56:58;9.13;;;3.50;;
8060;SDS011;4073;42.626;25.386;2023-09-19T10:02:08;6.23;;;3.67;;
8060;SDS011;4073;42.626;25.386;2023-09-19T10:04:38;3.27;;;3.00;;
8060;SDS011;4073;42.626;25.386;2023-09-19T10:07:50;4.23;;;3.50;;
8060;SDS011;4073;42.626;25.386;2023-09-19T10:10:35;4.43;;;3.63;;
8060;SDS011;4073;42.626;25.386;2023-09-19T10:13:10;4.00;;;3.00;;
8060;SDS011;4073;42.626;25.386;2023-09-19T10:15:46;4.10;;;3.43;;
8060;SDS011;4073;42.626;25.386;2023-09-19T10:18:21;7.40;;;3.50;;
8060;SDS011;4073;42.626;25.386;2023-09-19T10:20:51;3.60;;;2.93;;
8060;SDS011;4073;42.626;25.386;2023-09-19T10:23:18;7.40;;;3.53;;
8060;SDS011;4073;42.626;25.386;2023-09-19T10:25:48;3.80;;;3.50;;
8060;SDS011;4073;42.626;25.386;2023-09-19T10:28:15;4.00;;;3.60;;
8060;SDS011;4073;42.626;25.386;2023-09-19T10:30:47;4.00;;;3.63;;
8060;SDS011;4073;42.626;25.386;2023-09-19T10:33:15;4.23;;;3.53;;
8060;SDS011;4073;42.626;25.386;2023-09-19T10:35:46;4.77;;;3.40;;
8060;SDS011;4073;42.626;25.386;2023-09-19T10:38:14;4.00;;;3.23;;
8060;SDS011;4073;42.626;25.386;2023-09-19T10:40:44;3.73;;;3.23;;
8060;SDS011;4073;42.626;25.386;2023-09-19T10:43:17;3.90;;;3.50;;
8060;SDS011;4073;42.626;25.386;2023-09-19T10:45:44;5.43;;;3.50;;
8060;SDS011;4073;42.626;25.386;2023-09-19T10:48:14;3.50;;;3.00;;
8060;SDS011;4073;42.626;25.386;2023-09-19T10:50:47;3.53;;;3.23;;
8060;SDS011;4073;42.626;25.386;2023-09-19T10:53:29;3.50;;;3.20;;
8060;SDS011;4073;42.626;25.386;2023-09-19T10:56:07;3.43;;;3.03;;
8060;SDS011;4073;42.626;25.386;2023-09-19T10:58:39;3.83;;;3.13;;
8060;SDS011;4073;42.626;25.386;2023-09-19T11:01:09;3.30;;;3.00;;
8060;SDS011;4073;42.626;25.386;2023-09-19T11:03:40;4.93;;;3.07;;
8060;SDS011;4073;42.626;25.386;2023-09-19T11:06:16;3.20;;;2.93;;
8060;SDS011;4073;42.626;25.386;2023-09-19T11:14:37;3.23;;;2.90;;
8060;SDS011;4073;42.626;25.386;2023-09-19T11:30:36;3.73;;;3.37;;
8060;SDS011;4073;42.626;25.386;2023-09-19T11:33:16;3.80;;;3.33;;
8060;SDS011;4073;42.626;25.386;2023-09-19T11:39:13;8.53;;;4.10;;
8060;SDS011;4073;42.626;25.386;2023-09-19T11:46:51;3.80;;;3.40;;
8060;SDS011;4073;42.626;25.386;2023-09-19T11:49:25;9.73;;;4.10;;
8060;SDS011;4073;42.626;25.386;2023-09-19T11:51:57;5.37;;;3.70;;
8060;SDS011;4073;42.626;25.386;2023-09-19T11:54:25;3.93;;;3.53;;
8060;SDS011;4073;42.626;25.386;2023-09-19T11:56:57;3.77;;;3.20;;
8060;SDS011;4073;42.626;25.386;2023-09-19T11:59:24;3.83;;;3.43;;
8060;SDS011;4073;42.626;25.386;2023-09-19T12:01:55;4.40;;;4.00;;
8060;SDS011;4073;42.626;25.386;2023-09-19T12:04:36;5.37;;;4.03;;
8060;SDS011;4073;42.626;25.386;2023-09-19T12:07:03;4.47;;;3.80;;
8060;SDS011;4073;42.626;25.386;2023-09-19T12:09:31;3.77;;;3.47;;
8060;SDS011;4073;42.626;25.386;2023-09-19T12:11:57;3.90;;;3.60;;
8060;SDS011;4073;42.626;25.386;2023-09-19T12:14:23;7.50;;;4.03;;
8060;SDS011;4073;42.626;25.386;2023-09-19T12:16:53;6.03;;;3.90;;
8060;SDS011;4073;42.626;25.386;2023-09-19T12:19:20;4.23;;;3.77;;
8060;SDS011;4073;42.626;25.386;2023-09-19T12:21:57;4.10;;;3.20;;
8060;SDS011;4073;42.626;25.386;2023-09-19T12:24:25;4.03;;;3.47;;
8060;SDS011;4073;42.626;25.386;2023-09-19T12:26:54;6.17;;;4.20;;
8060;SDS011;4073;42.626;25.386;2023-09-19T12:29:29;4.10;;;3.50;;
8060;SDS011;4073;42.626;25.386;2023-09-19T12:31:56;6.17;;;3.77;;
8060;SDS011;4073;42.626;25.386;2023-09-19T12:37:05;4.90;;;3.63;;
8060;SDS011;4073;42.626;25.386;2023-09-19T12:39:40;9.70;;;4.57;;
8060;SDS011;4073;42.626;25.386;2023-09-19T12:42:08;6.93;;;3.80;;
8060;SDS011;4073;42.626;25.386;2023-09-19T12:44:43;4.17;;;3.77;;
8060;SDS011;4073;42.626;25.386;2023-09-19T12:47:10;3.63;;;3.33;;
8060;SDS011;4073;42.626;25.386;2023-09-19T12:50:04;3.70;;;3.37;;
8060;SDS011;4073;42.626;25.386;2023-09-19T12:52:50;4.23;;;2.97;;
8060;SDS011;4073;42.626;25.386;2023-09-19T12:55:20;4.57;;;3.40;;
8060;SDS011;4073;42.626;25.386;2023-09-19T12:57:56;3.63;;;3.30;;
8060;SDS011;4073;42.626;25.386;2023-09-19T13:00:31;3.63;;;3.10;;
8060;SDS011;4073;42.626;25.386;2023-09-19T13:03:09;3.93;;;3.40;;
8060;SDS011;4073;42.626;25.386;2023-09-19T13:13:25;6.47;;;3.70;;
8060;SDS011;4073;42.626;25.386;2023-09-19T13:16:10;4.40;;;3.43;;
8060;SDS011;4073;42.626;25.386;2023-09-19T13:18:43;3.53;;;3.17;;
8060;SDS011;4073;42.626;25.386;2023-09-19T13:21:10;3.77;;;3.17;;
8060;SDS011;4073;42.626;25.386;2023-09-19T13:23:51;3.17;;;2.87;;
8060;SDS011;4073;42.626;25.386;2023-09-19T13:26:17;4.20;;;3.80;;
8060;SDS011;4073;42.626;25.386;2023-09-19T13:28:44;6.57;;;3.83;;
8060;SDS011;4073;42.626;25.386;2023-09-19T13:31:09;5.27;;;3.37;;
8060;SDS011;4073;42.626;25.386;2023-09-19T13:33:45;3.57;;;3.27;;
8060;SDS011;4073;42.626;25.386;2023-09-19T13:36:12;3.60;;;3.30;;
8060;SDS011;4073;42.626;25.386;2023-09-19T13:38:41;5.83;;;3.80;;
8060;SDS011;4073;42.626;25.386;2023-09-19T13:41:11;6.10;;;4.40;;
8060;SDS011;4073;42.626;25.386;2023-09-19T13:43:37;5.57;;;4.40;;
8060;SDS011;4073;42.626;25.386;2023-09-19T13:46:04;6.13;;;3.70;;
8060;SDS011;4073;42.626;25.386;2023-09-19T13:48:30;4.53;;;3.53;;
8060;SDS011;4073;42.626;25.386;2023-09-19T13:50:56;5.00;;;4.50;;
8060;SDS011;4073;42.626;25.386;2023-09-19T13:53:21;5.03;;;3.83;;
8060;SDS011;4073;42.626;25.386;2023-09-19T13:55:47;12.70;;;5.93;;
8060;SDS011;4073;42.626;25.386;2023-09-19T13:58:14;6.07;;;4.93;;
8060;SDS011;4073;42.626;25.386;2023-09-19T14:00:39;8.13;;;4.20;;
8060;SDS011;4073;42.626;25.386;2023-09-19T14:03:05;4.37;;;3.97;;
8060;SDS011;4073;42.626;25.386;2023-09-19T14:05:31;9.77;;;4.47;;
8060;SDS011;4073;42.626;25.386;2023-09-19T14:07:57;4.90;;;3.93;;
8060;SDS011;4073;42.626;25.386;2023-09-19T14:10:24;5.80;;;4.33;;
8060;SDS011;4073;42.626;25.386;2023-09-19T14:12:51;4.20;;;3.80;;
8060;SDS011;4073;42.626;25.386;2023-09-19T14:15:16;8.77;;;3.37;;
8060;SDS011;4073;42.626;25.386;2023-09-19T14:17:42;7.20;;;4.50;;
8060;SDS011;4073;42.626;25.386;2023-09-19T14:20:09;3.70;;;3.37;;
8060;SDS011;4073;42.626;25.386;2023-09-19T14:22:35;7.50;;;4.60;;
8060;SDS011;4073;42.626;25.386;2023-09-19T14:25:02;4.07;;;3.50;;
8060;SDS011;4073;42.626;25.386;2023-09-19T14:27:29;4.63;;;3.67;;
8060;SDS011;4073;42.626;25.386;2023-09-19T14:29:54;3.67;;;3.40;;
8060;SDS011;4073;42.626;25.386;2023-09-19T14:32:21;7.30;;;3.60;;
8060;SDS011;4073;42.626;25.386;2023-09-19T14:34:47;4.20;;;3.80;;
8060;SDS011;4073;42.626;25.386;2023-09-19T14:37:13;5.70;;;4.10;;
8060;SDS011;4073;42.626;25.386;2023-09-19T14:39:39;8.07;;;3.90;;
8060;SDS011;4073;42.626;25.386;2023-09-19T14:42:06;3.77;;;3.47;;
8060;SDS011;4073;42.626;25.386;2023-09-19T14:44:31;4.30;;;3.87;;
8060;SDS011;4073;42.626;25.386;2023-09-19T14:46:57;6.17;;;3.80;;
8060;SDS011;4073;42.626;25.386;2023-09-19T14:49:23;4.63;;;3.53;;
8060;SDS011;4073;42.626;25.386;2023-09-19T14:51:50;3.80;;;3.47;;
8060;SDS011;4073;42.626;25.386;2023-09-19T14:54:17;5.37;;;3.83;;
8060;SDS011;4073;42.626;25.386;2023-09-19T14:56:43;6.83;;;3.90;;
8060;SDS011;4073;42.626;25.386;2023-09-19T14:59:10;4.60;;;4.20;;
8060;SDS011;4073;42.626;25.386;2023-09-19T15:01:36;3.50;;;3.20;;
8060;SDS011;4073;42.626;25.386;2023-09-19T15:04:01;6.37;;;4.30;;
8060;SDS011;4073;42.626;25.386;2023-09-19T15:06:27;6.57;;;4.80;;
8060;SDS011;4073;42.626;25.386;2023-09-19T15:08:53;6.80;;;4.43;;
8060;SDS011;4073;42.626;25.386;2023-09-19T15:11:18;12.67;;;5.60;;
8060;SDS011;4073;42.626;25.386;2023-09-19T15:13:45;6.43;;;3.83;;
8060;SDS011;4073;42.626;25.386;2023-09-19T15:16:12;4.63;;;3.90;;
8060;SDS011;4073;42.626;25.386;2023-09-19T15:18:42;6.93;;;3.83;;
8060;SDS011;4073;42.626;25.386;2023-09-19T15:21:10;4.73;;;3.80;;
8060;SDS011;4073;42.626;25.386;2023-09-19T15:23:37;9.93;;;5.17;;
8060;SDS011;4073;42.626;25.386;2023-09-19T15:26:04;10.40;;;5.17;;
8060;SDS011;4073;42.626;25.386;2023-09-19T15:28:30;8.73;;;5.03;;
8060;SDS011;4073;42.626;25.386;2023-09-19T15:31:01;6.97;;;4.87;;
8060;SDS011;4073;42.626;25.386;2023-09-19T15:33:29;4.90;;;3.70;;
8060;SDS011;4073;42.626;25.386;2023-09-19T15:38:30;7.93;;;4.30;;
8060;SDS011;4073;42.626;25.386;2023-09-19T15:40:59;5.73;;;3.90;;
8060;SDS011;4073;42.626;25.386;2023-09-19T15:43:25;6.80;;;5.60;;
8060;SDS011;4073;42.626;25.386;2023-09-19T15:45:50;5.43;;;4.80;;
8060;SDS011;4073;42.626;25.386;2023-09-19T15:48:16;5.77;;;4.37;;
8060;SDS011;4073;42.626;25.386;2023-09-19T15:50:43;9.83;;;4.90;;
8060;SDS011;4073;42.626;25.386;2023-09-19T15:53:09;8.20;;;3.90;;
8060;SDS011;4073;42.626;25.386;2023-09-19T15:55:41;7.33;;;4.07;;
8060;SDS011;4073;42.626;25.386;2023-09-19T15:58:07;6.70;;;4.17;;
8060;SDS011;4073;42.626;25.386;2023-09-19T16:00:32;5.80;;;3.93;;
8060;SDS011;4073;42.626;25.386;2023-09-19T16:03:02;8.17;;;4.03;;
8060;SDS011;4073;42.626;25.386;2023-09-19T16:05:28;6.87;;;3.70;;
8060;SDS011;4073;42.626;25.386;2023-09-19T16:08:05;12.57;;;5.43;;
8060;SDS011;4073;42.626;25.386;2023-09-19T16:10:36;5.30;;;3.73;;